createdAt,value
2019-03-15T00:02:44.130Z,9.40
2019-03-15T00:07:51.384Z,9.40
2019-03-15T00:12:57.770Z,9.40
2019-03-15T00:18:03.199Z,9.40
2019-03-15T00:23:08.752Z,9.40
2019-03-15T00:28:14.990Z,9.40
2019-03-15T00:33:21.910Z,9.40
2019-03-15T00:38:29.353Z,9.50
2019-03-15T00:43:35.330Z,9.40
2019-03-15T00:48:41.710Z,9.50
2019-03-15T00:53:49.541Z,9.50
2019-03-15T00:58:57.031Z,9.50
2019-03-15T01:04:03.036Z,9.40
2019-03-15T01:09:09.990Z,9.40
2019-03-15T01:14:17.152Z,9.40
2019-03-15T01:19:22.723Z,9.40
2019-03-15T01:24:28.413Z,9.40
2019-03-15T01:29:35.249Z,9.40
2019-03-15T01:34:43.510Z,9.30
2019-03-15T01:39:49.302Z,9.30
2019-03-15T01:44:56.095Z,9.30
2019-03-15T01:50:03.218Z,9.30
2019-03-15T01:55:09.505Z,9.30
2019-03-15T02:00:15.352Z,9.30
2019-03-15T02:05:22.152Z,9.30
2019-03-15T02:10:27.492Z,9.30
2019-03-15T02:15:34.001Z,9.20
2019-03-15T02:20:41.963Z,9.20
2019-03-15T02:25:49.421Z,9.20
2019-03-15T02:30:55.347Z,9.30
2019-03-15T02:36:02.524Z,9.30
2019-03-15T02:41:08.182Z,9.30
2019-03-15T02:46:13.973Z,9.30
2019-03-15T02:51:19.933Z,9.30
2019-03-15T02:56:25.910Z,9.30
2019-03-15T03:01:33.932Z,9.30
2019-03-15T03:06:39.545Z,9.30
2019-03-15T03:11:45.323Z,9.30
2019-03-15T03:16:51.689Z,9.30
2019-03-15T03:21:57.442Z,9.30
2019-03-15T03:27:03.424Z,9.30
2019-03-15T03:32:13.583Z,9.30
2019-03-15T03:37:19.131Z,9.30
2019-03-15T03:42:26.218Z,9.30
2019-03-15T03:47:32.839Z,9.30
2019-03-15T03:52:41.425Z,9.30
2019-03-15T03:57:48.930Z,9.40
2019-03-15T04:02:55.326Z,9.40
2019-03-15T04:08:01.342Z,9.40
2019-03-15T04:13:08.306Z,9.40
2019-03-15T04:18:15.520Z,9.40
2019-03-15T04:23:21.483Z,9.40
2019-03-15T04:28:28.533Z,9.40
2019-03-15T04:33:33.769Z,9.40
2019-03-15T04:38:41.229Z,9.40
2019-03-15T04:44:19.848Z,9.40
2019-03-15T04:49:27.594Z,9.40
2019-03-15T04:54:54.106Z,9.40
2019-03-15T05:00:09.149Z,9.40
2019-03-15T05:05:15.680Z,9.40
2019-03-15T05:10:28.421Z,9.40
2019-03-15T05:15:36.060Z,9.40
2019-03-15T05:20:43.214Z,9.40
2019-03-15T05:25:50.924Z,9.40
2019-03-15T05:30:57.233Z,9.40
2019-03-15T05:36:04.486Z,9.30
2019-03-15T05:41:10.587Z,9.30
2019-03-15T05:46:18.120Z,9.30
2019-03-15T05:51:25.389Z,9.30
2019-03-15T05:56:31.238Z,9.30
2019-03-15T06:01:36.869Z,9.30
2019-03-15T06:06:44.357Z,9.30
2019-03-15T06:11:52.900Z,9.30
2019-03-15T06:17:00.330Z,9.30
2019-03-15T06:22:06.613Z,9.40
2019-03-15T06:27:14.259Z,9.40
2019-03-15T06:32:20.539Z,9.40
2019-03-15T06:37:26.928Z,9.40
2019-03-15T06:42:32.791Z,9.50
2019-03-15T06:47:38.680Z,9.40
2019-03-15T06:52:45.028Z,9.40
2019-03-15T06:57:51.756Z,9.40
2019-03-15T07:02:58.393Z,9.40
2019-03-15T07:08:04.298Z,9.50
2019-03-15T07:13:11.283Z,9.40
2019-03-15T07:18:19.469Z,9.40
2019-03-15T07:23:25.365Z,9.40
2019-03-15T07:28:32.243Z,9.40
2019-03-15T07:33:39.146Z,9.40
2019-03-15T07:38:46.311Z,9.50
2019-03-15T07:43:51.572Z,9.50
2019-03-15T07:48:57.873Z,9.40
2019-03-15T07:54:04.748Z,9.50
2019-03-15T07:59:10.415Z,9.50
2019-03-15T08:04:18.381Z,9.50
2019-03-15T08:09:25.486Z,9.60
2019-03-15T08:14:30.684Z,9.60
2019-03-15T08:19:36.585Z,9.70
2019-03-15T08:24:51.449Z,9.60
2019-03-15T08:29:52.644Z,9.70
2019-03-15T08:34:58.353Z,9.80
2019-03-15T08:40:05.276Z,9.90
2019-03-15T08:45:12.800Z,9.90
2019-03-15T08:50:18.929Z,9.90
2019-03-15T08:55:24.989Z,9.90
2019-03-15T09:00:30.600Z,9.90
2019-03-15T09:05:36.422Z,9.90
2019-03-15T09:10:42.777Z,10.00
2019-03-15T09:15:49.606Z,10.00
2019-03-15T09:20:55.115Z,10.00
2019-03-15T09:26:03.413Z,10.00
2019-03-15T09:31:12.630Z,10.10
2019-03-15T09:36:19.123Z,10.10
2019-03-15T09:41:31.866Z,10.20
2019-03-15T09:46:33.786Z,10.30
2019-03-15T09:51:39.953Z,10.40
2019-03-15T09:56:47.326Z,10.50
2019-03-15T10:01:53.133Z,10.50
2019-03-15T10:06:59.204Z,10.60
2019-03-15T10:12:06.162Z,10.60
2019-03-15T10:17:12.529Z,10.60
2019-03-15T10:22:19.587Z,10.60
2019-03-15T10:27:25.951Z,10.70
2019-03-15T10:32:31.678Z,10.80
2019-03-15T10:37:38.448Z,10.80
2019-03-15T10:42:45.081Z,10.90
2019-03-15T10:47:50.737Z,11.00
2019-03-15T10:52:56.739Z,11.10
2019-03-15T10:58:03.031Z,11.20
2019-03-15T11:03:09.099Z,11.30
2019-03-15T11:08:16.301Z,11.30
2019-03-15T11:13:21.815Z,11.40
2019-03-15T11:18:29.138Z,11.60
2019-03-15T11:23:35.166Z,11.60
2019-03-15T11:28:41.945Z,11.80
2019-03-15T11:33:48.750Z,11.80
2019-03-15T11:38:55.472Z,11.90
2019-03-15T11:44:01.946Z,12.00
2019-03-15T11:49:08.503Z,12.10
2019-03-15T11:54:15.833Z,12.20
2019-03-15T11:59:22.915Z,12.20
2019-03-15T12:04:29.549Z,12.30
2019-03-15T12:09:35.535Z,12.40
2019-03-15T12:14:41.744Z,12.40
2019-03-15T12:19:46.913Z,12.40
2019-03-15T12:24:53.808Z,12.40
2019-03-15T12:30:01.277Z,12.50
2019-03-15T12:35:08.133Z,12.50
2019-03-15T12:40:13.767Z,12.60
2019-03-15T12:45:19.919Z,12.60
2019-03-15T12:50:25.467Z,12.60
2019-03-15T12:55:32.105Z,12.60
2019-03-15T13:00:38.683Z,12.70
2019-03-15T13:05:44.232Z,12.70
2019-03-15T13:10:51.073Z,12.80
2019-03-15T13:15:56.981Z,12.90
2019-03-15T13:21:04.090Z,12.90
2019-03-15T13:26:09.555Z,12.90
2019-03-15T13:31:15.573Z,12.90
2019-03-15T13:36:22.220Z,13.00
2019-03-15T13:41:28.728Z,13.10
2019-03-15T13:46:34.237Z,13.20
2019-03-15T13:51:39.801Z,13.20
2019-03-15T13:56:48.359Z,13.30
2019-03-15T14:01:52.836Z,13.30
2019-03-15T14:06:58.532Z,13.30
2019-03-15T14:12:04.021Z,13.30
2019-03-15T14:17:11.462Z,13.20
2019-03-15T14:22:36.018Z,13.20
2019-03-15T14:27:43.597Z,13.20
2019-03-15T14:32:50.264Z,13.20
2019-03-15T14:37:57.096Z,13.20
2019-03-15T14:43:02.677Z,13.20
2019-03-15T14:48:08.934Z,13.20
2019-03-15T14:53:14.821Z,13.20
2019-03-15T14:58:21.532Z,13.20
2019-03-15T15:03:28.247Z,13.20
2019-03-15T15:08:34.712Z,13.20
2019-03-15T15:13:40.792Z,13.20
2019-03-15T15:18:46.389Z,13.20
2019-03-15T15:23:54.432Z,13.20
2019-03-15T15:29:00.370Z,13.30
2019-03-15T15:34:07.207Z,13.30
2019-03-15T15:39:13.628Z,13.20
2019-03-15T15:44:22.029Z,13.20
2019-03-15T15:49:29.297Z,13.20
2019-03-15T15:54:34.972Z,13.20
2019-03-15T15:59:41.225Z,13.10
2019-03-15T16:04:46.945Z,13.10
2019-03-15T16:09:52.700Z,13.00
2019-03-15T16:14:59.962Z,13.00
2019-03-15T16:20:07.234Z,13.00
2019-03-15T16:25:14.758Z,12.90
2019-03-15T16:30:20.692Z,12.90
2019-03-15T16:35:26.328Z,12.80
2019-03-15T16:40:33.510Z,12.80
2019-03-15T16:45:41.538Z,12.60
2019-03-15T16:50:47.649Z,12.60
2019-03-15T16:55:53.185Z,12.50
2019-03-15T17:01:00.225Z,12.40
2019-03-15T17:06:06.569Z,12.40
2019-03-15T17:11:13.149Z,12.30
2019-03-15T17:16:20.340Z,12.30
2019-03-15T17:21:26.502Z,12.20
2019-03-15T17:26:37.227Z,12.20
2019-03-15T17:31:43.527Z,12.10
2019-03-15T17:36:49.182Z,12.00
2019-03-15T17:41:56.713Z,11.90
2019-03-15T17:47:04.259Z,11.80
2019-03-15T17:52:10.878Z,11.80
2019-03-15T17:57:17.116Z,11.70
2019-03-15T18:02:25.058Z,11.60
2019-03-15T18:07:33.538Z,11.60
2019-03-15T18:12:40.504Z,11.50
2019-03-15T18:17:47.814Z,11.50
2019-03-15T18:22:55.031Z,11.50
2019-03-15T18:28:02.210Z,11.40
2019-03-15T18:33:09.402Z,11.40
2019-03-15T18:38:14.834Z,11.40
2019-03-15T18:43:21.281Z,11.40
2019-03-15T18:48:28.336Z,11.40
2019-03-15T18:53:37.202Z,11.40
2019-03-15T18:58:43.404Z,11.30
2019-03-15T19:03:52.249Z,11.30
2019-03-15T19:08:59.035Z,11.30
2019-03-15T19:14:05.714Z,11.30
2019-03-15T19:19:12.905Z,11.30
2019-03-15T19:24:19.464Z,11.20
2019-03-15T19:29:27.564Z,11.20
2019-03-15T19:34:33.446Z,11.20
2019-03-15T19:39:39.917Z,11.20
2019-03-15T19:44:48.467Z,11.20
2019-03-15T19:49:57.037Z,11.20
2019-03-15T19:55:13.635Z,11.10
2019-03-15T20:00:30.027Z,11.10
2019-03-15T20:05:39.197Z,11.10
2019-03-15T20:10:45.977Z,11.00
2019-03-15T20:15:52.539Z,11.00
2019-03-15T20:20:58.323Z,11.00
2019-03-15T20:26:06.585Z,11.00
2019-03-15T20:31:11.819Z,11.00
2019-03-15T20:36:18.343Z,10.90
2019-03-15T20:41:25.529Z,10.90
2019-03-15T20:46:36.043Z,10.90
2019-03-15T20:51:40.573Z,10.90
2019-03-15T20:56:46.997Z,10.90
2019-03-15T21:01:52.752Z,10.90
2019-03-15T21:06:59.852Z,10.90
2019-03-15T21:12:05.245Z,10.80
2019-03-15T21:17:12.394Z,10.80
2019-03-15T21:22:18.682Z,10.70
2019-03-15T21:27:26.992Z,10.70
2019-03-15T21:32:33.430Z,10.70
2019-03-15T21:37:40.404Z,10.70
2019-03-15T21:42:48.376Z,10.70
2019-03-15T21:47:55.811Z,10.70
2019-03-15T21:53:01.889Z,10.70
2019-03-15T21:58:08.403Z,10.70
2019-03-15T22:03:15.037Z,10.70
2019-03-15T22:08:21.713Z,10.70
2019-03-15T22:19:33.113Z,10.70
2019-03-15T22:24:40.739Z,10.70
2019-03-15T22:29:53.585Z,10.70
2019-03-15T22:34:55.325Z,10.70
2019-03-15T22:40:02.120Z,10.60
2019-03-15T22:45:07.928Z,10.60
2019-03-15T22:50:13.713Z,10.60
2019-03-15T22:55:20.060Z,10.60
2019-03-15T23:00:31.173Z,10.60
2019-03-15T23:05:37.434Z,10.60
2019-03-15T23:10:47.148Z,10.60
2019-03-15T23:15:52.977Z,10.60
2019-03-15T23:21:00.269Z,10.50
2019-03-15T23:26:06.636Z,10.60
2019-03-15T23:31:13.815Z,10.60
2019-03-15T23:36:19.349Z,10.60
2019-03-15T23:41:26.231Z,10.60
2019-03-15T23:46:33.167Z,10.60
2019-03-15T23:51:41.073Z,10.60
2019-03-15T23:56:47.970Z,10.60
